Lee's Summit, MO

5:05 PM CDT on October 23, 2014 (GMT -0500)
Lee's Summit Municipal | Change Station
CLOSE
Current Station
Airport
Location: Lee's Summit,
Elevation: 1004 ft
Nearby Weather Stations

Elev 1004 ft 38.96 °N, 94.37 °W | Updated 12 minutes ago

Overcast
Overcast
64 °F
Feels Like 64 °F
N
8
Wind Variable Wind from SSW

Today
High -- | Low -- °F
--% Chance of Precip.
Yesterday
High -- | Low -- °F
Precip. -- in
7:35 AM 6:27 PM
New Moon, 0% visible
Pressure 30.06 in
Visibility 10.0 miles
Clouds Overcast 1500 ft
Dew Point 59 °F
Humidity 84%
Rainfall 0.13 in
Snow Depth Not available.
UV 0 out of 12
Pollen 1.50 out of 12
Ozone Good
PM2.5 Unhealthy for Sensitive Groups
Flu Activity No Activity
METAR KLXT 232153Z AUTO 21007KT 10SM OVC015 18/15 A3006 RMK AO2 SLP178 T01780150

More Conditions Fewer Conditions

Pressure 30.06 in
Visibility 10.0 miles
Clouds Overcast 1500 ft
Dew Point 59 °F
Humidity 84%
Rainfall 0.13 in
Snow Depth Not available.
UV 0 out of 12
Pollen 1.50 out of 12
Ozone Good
PM2.5 Unhealthy for Sensitive Groups
Flu Activity No Activity
METAR KLXT 232153Z AUTO 21007KT 10SM OVC015 18/15 A3006 RMK AO2 SLP178 T01780150

More Conditions Fewer Conditions

10-Day Weather Forecast

Almanac

Astronomy

Oct. 23, 2014 Rise Set
Actual Time 7:35 AM CDT 6:27 PM CDT
Civil Twilight 7:07 AM CDT 6:54 PM CDT
Nautical Twilight 6:36 AM CDT 7:26 PM CDT
Astronomical Twilight 6:05 AM CDT 7:57 PM CDT
Moon 7:15 AM CDT 6:29 PM CDT
Length of Visible Light 11h 47m
Length of Day
10h 52m
Tomorrow will be 2m 21s shorter.
New Moon, 0% of the Moon is Illuminated
Today
New Moon
Oct 30
First Quarter
Nov 6
Full
Nov 14
Last Quarter
Nov 22
New

Today's Extremes

State Highs State Lows

Community

WunderPhotos

Upload Photos

1,764,383 photos uploaded!

WunderBlogs® & News

Nearby

Air Quality

  Air Quality AQ Index Pollutant
Yesterday Moderate
PM2.5
Yesterday Good
OZONE
Current Unhealthy for Sensitive Groups
PM2.5
Current Good
OZONE
Thursday Good
OZONE
Friday Good
OZONE

Snow Depth

Station Depth Elevation
No new snow has been reported.

Earthquake Activity

City Distance Mag. Time & Date
No recent earthquake activity has been reported nearby.
Minimum magnitude displayed is 2.5.

Coastal Water Temperatures

Place Temperature
No Stations Reporting

Nearby Weather Stations